Terminal Aerodrome Forecast
Issued by NWS Sterling, VA

Current Version | Previous Version | Text Only | Print | Product List | Glossary Off
Versions: 1 2 3 4 5 6 7 8 9 10 11 12 13 14 15 16 17 18 19 20 21 22 23 24 25

000
FTUS41 KLWX 252036 AAA
TAFDCA
TAF AMD
KDCA 252036Z 2521/2618 18011KT P6SM OVC040
     FM252300 18006KT P6SM BKN025
     FM260600 20006KT P6SM OVC015
     FM261000 19006KT P6SM OVC008
     FM261200 18007KT 6SM -SHRA OVC008
     FM261300 19008KT 6SM -SHRA BKN015
     FM261600 21012KT P6SM BKN015=

USA.gov is the U.S. government's official web portal to all federal, state and local government web resources and services.